Time;durP1;ratioP1;P1;durP2;ratioP2;P2;SDS_P1;SDS_P2;PMS_P1;PMS_P2;Temp;Humidity;BMP_temperature;BMP_pressure;BME280_temperature;BME280_humidity;BME280_pressure;Samples;Min_cycle;Max_cycle;Signal;HPM_P1;HPM_P2
2021/07/31 00:00:47;;;;;;;32.47;10.18;;;27.40;67.30;;;;;;5054436;28;20036;-67
2021/07/31 00:03:51;;;;;;;26.05;9.80;;;27.40;67.20;;;;;;5053914;28;20071;-67
2021/07/31 00:06:54;;;;;;;28.95;10.55;;;27.50;67.10;;;;;;5054552;28;20377;-67
2021/07/31 00:09:58;;;;;;;33.72;9.95;;;27.50;67.30;;;;;;5054265;28;20052;-67
2021/07/31 00:13:02;;;;;;;23.58;10.35;;;27.50;68.10;;;;;;5054542;28;20044;-67
2021/07/31 00:16:06;;;;;;;34.15;9.40;;;27.30;68.70;;;;;;5041810;28;20060;-67
2021/07/31 00:19:10;;;;;;;31.63;9.77;;;27.30;68.30;;;;;;5053082;28;20036;-67
2021/07/31 00:22:14;;;;;;;27.58;10.13;;;27.30;68.30;;;;;;5053975;28;20044;-67
2021/07/31 00:29:57;;;;;;;29.55;10.80;;;27.30;69.10;;;;;;5053879;28;20404;-67
2021/07/31 00:33:02;;;;;;;25.45;11.32;;;27.30;69.20;;;;;;5053545;28;20048;-67
2021/07/31 00:36:05;;;;;;;36.63;11.38;;;27.30;69.60;;;;;;5052666;28;20519;-67
2021/07/31 00:39:09;;;;;;;26.88;12.05;;;27.30;70.00;;;;;;5053720;28;20036;-67
2021/07/31 00:42:13;;;;;;;31.63;10.85;;;27.20;70.40;;;;;;5053566;28;20047;-67
2021/07/31 00:45:20;;;;;;;27.00;11.38;;;27.10;70.50;;;;;;5041420;28;20498;-67
2021/07/31 00:48:25;;;;;;;38.60;11.10;;;27.00;70.90;;;;;;5053538;28;20048;-67
2021/07/31 00:51:31;;;;;;;23.90;11.10;;;26.90;71.10;;;;;;5053682;28;20048;-67
2021/07/31 00:54:35;;;;;;;32.00;11.88;;;26.80;71.40;;;;;;5053431;28;20150;-67
2021/07/31 00:57:41;;;;;;;23.83;11.25;;;26.70;71.50;;;;;;5053468;28;20032;-67
2021/07/31 01:01:07;;;;;;;40.03;13.80;;;26.50;72.50;;;;;;5041082;28;20052;-67
2021/07/31 01:04:12;;;;;;;31.77;12.40;;;26.50;73.90;;;;;;5052596;28;20068;-67
2021/07/31 01:07:16;;;;;;;25.98;12.15;;;26.40;74.00;;;;;;5052760;28;20044;-67
2021/07/31 01:10:20;;;;;;;27.50;13.07;;;26.30;74.30;;;;;;5053181;28;20048;-67
2021/07/31 01:13:25;;;;;;;32.53;12.93;;;26.40;75.40;;;;;;5052976;28;20444;-67
2021/07/31 01:16:30;;;;;;;28.13;11.75;;;26.40;75.30;;;;;;5053390;28;20048;-67
2021/07/31 01:19:34;;;;;;;29.30;12.73;;;26.40;75.50;;;;;;5053096;28;20044;-67
2021/07/31 01:22:40;;;;;;;31.25;12.68;;;26.40;75.50;;;;;;5040988;28;20461;-67
2021/07/31 01:25:48;;;;;;;28.17;12.63;;;26.30;75.70;;;;;;5052994;28;20056;-67
2021/07/31 01:28:52;;;;;;;31.88;12.80;;;26.30;75.90;;;;;;5052588;28;20040;-67
2021/07/31 01:31:56;;;;;;;23.75;12.38;;;26.30;76.10;;;;;;5051717;28;20048;-67
2021/07/31 01:34:59;;;;;;;30.08;12.20;;;26.30;76.20;;;;;;5052933;28;20040;-67
2021/07/31 01:38:05;;;;;;;33.20;12.73;;;26.30;76.50;;;;;;5040557;28;20048;-67
2021/07/31 01:41:09;;;;;;;33.13;13.13;;;26.30;76.00;;;;;;5052053;28;20036;-67
2021/07/31 01:44:13;;;;;;;42.17;13.40;;;26.30;76.10;;;;;;5052698;28;20056;-67
2021/07/31 01:47:18;;;;;;;35.10;13.88;;;26.30;76.20;;;;;;5040563;28;20385;-67
2021/07/31 01:50:22;;;;;;;41.15;13.55;;;26.30;76.60;;;;;;5052849;28;20052;-67
2021/07/31 01:53:30;;;;;;;47.53;13.43;;;26.20;76.70;;;;;;5051915;28;20472;-67
2021/07/31 01:56:35;;;;;;;29.83;12.65;;;26.20;77.30;;;;;;5051856;28;20048;-67
2021/07/31 01:59:41;;;;;;;37.28;13.48;;;26.10;77.30;;;;;;5051842;28;20495;-67
2021/07/31 02:02:46;;;;;;;25.95;12.48;;;26.10;77.10;;;;;;5051809;28;20044;-67
2021/07/31 02:05:54;;;;;;;28.52;12.60;;;26.30;77.00;;;;;;5051774;28;20056;-67
2021/07/31 02:08:58;;;;;;;26.65;13.18;;;26.20;76.80;;;;;;5040233;28;20063;-67
2021/07/31 02:12:03;;;;;;;26.88;14.25;;;26.10;77.00;;;;;;5040537;28;20052;-67
2021/07/31 02:15:08;;;;;;;31.40;13.95;;;26.00;76.90;;;;;;5040316;28;20060;-67
2021/07/31 02:18:13;;;;;;;35.78;13.07;;;25.80;77.60;;;;;;5040179;28;20048;-67
2021/07/31 02:21:17;;;;;;;25.50;12.93;;;25.70;78.00;;;;;;5040241;28;20056;-67
2021/07/31 02:24:38;;;;;;;;;;;25.70;78.00;;;;;;5040645;28;20506;-67
2021/07/31 02:28:00;;;;;;;25.35;14.00;;;25.50;78.60;;;;;;5052534;28;19915;-67
2021/07/31 02:31:06;;;;;;;27.38;13.50;;;25.30;79.60;;;;;;5039995;28;20040;-66
2021/07/31 02:34:11;;;;;;;28.70;13.93;;;25.30;79.40;;;;;;5040117;28;20044;-67
2021/07/31 02:37:18;;;;;;;31.67;13.70;;;25.20;79.70;;;;;;5040097;28;20044;-67
2021/07/31 02:40:28;;;;;;;29.15;13.27;;;25.20;79.80;;;;;;5052066;28;20075;-67
2021/07/31 02:43:32;;;;;;;30.80;13.48;;;25.30;79.40;;;;;;5031337;28;20056;-67
2021/07/31 02:46:36;;;;;;;32.15;13.60;;;25.30;79.30;;;;;;5055420;28;20424;-67
2021/07/31 02:49:40;;;;;;;31.33;13.82;;;25.50;78.60;;;;;;5055755;28;20048;-67
2021/07/31 02:52:45;;;;;;;27.85;11.80;;;25.60;78.10;;;;;;5043397;28;20056;-67
2021/07/31 02:55:49;;;;;;;28.33;12.23;;;25.60;76.60;;;;;;5043378;28;20048;-67
2021/07/31 02:58:55;;;;;;;30.90;11.65;;;25.70;76.20;;;;;;5055305;28;20055;-67
2021/07/31 03:02:00;;;;;;;27.42;11.90;;;25.60;75.80;;;;;;5043049;28;20048;-66
2021/07/31 03:05:06;;;;;;;27.73;11.57;;;25.60;75.50;;;;;;5054859;28;20491;-67
2021/07/31 03:08:10;;;;;;;28.33;11.07;;;25.60;74.90;;;;;;5054615;28;20487;-67
2021/07/31 03:11:15;;;;;;;22.50;10.52;;;25.70;74.90;;;;;;5054556;28;20040;-67
2021/07/31 03:14:21;;;;;;;32.25;10.98;;;25.60;74.70;;;;;;5054448;28;20044;-67
2021/07/31 03:17:28;;;;;;;29.40;11.40;;;25.50;74.90;;;;;;5054405;28;20040;-67
2021/07/31 03:20:33;;;;;;;25.08;11.43;;;25.50;75.10;;;;;;5042967;28;20048;-67
2021/07/31 03:23:41;;;;;;;29.45;11.10;;;25.40;75.10;;;;;;5054378;28;20048;-67
2021/07/31 03:26:45;;;;;;;28.58;11.00;;;25.40;75.20;;;;;;5054086;28;20044;-67
2021/07/31 03:29:58;;;;;;;26.00;10.13;;;25.40;74.80;;;;;;5054221;28;20064;-67
2021/07/31 03:33:03;;;;;;;28.80;11.02;;;25.20;74.50;;;;;;5042655;28;20480;-67
2021/07/31 03:36:11;;;;;;;23.60;10.15;;;25.10;74.90;;;;;;5054842;28;20044;-67
2021/07/31 03:39:22;;;;;;;28.17;9.23;;;25.00;74.80;;;;;;5053996;28;20389;-67
2021/07/31 03:42:27;;;;;;;25.50;10.25;;;25.00;73.20;;;;;;5054740;28;20127;-67
2021/07/31 03:45:31;;;;;;;27.77;9.50;;;24.90;73.00;;;;;;5042274;28;20079;-67
2021/07/31 03:48:37;;;;;;;21.48;9.52;;;24.90;72.80;;;;;;5042299;28;20035;-66
2021/07/31 03:51:41;;;;;;;31.33;9.55;;;25.00;72.00;;;;;;5065287;28;20044;-66
2021/07/31 03:54:44;;;;;;;26.15;9.18;;;24.90;72.10;;;;;;5054382;28;20388;-66
2021/07/31 03:57:50;;;;;;;23.38;8.80;;;24.80;72.30;;;;;;5042189;28;20060;-67
2021/07/31 04:00:54;;;;;;;32.22;9.10;;;24.80;72.50;;;;;;5041921;28;20040;-67
2021/07/31 04:03:58;;;;;;;31.63;9.75;;;24.60;73.30;;;;;;5041662;28;20060;-67
2021/07/31 04:07:04;;;;;;;23.67;9.35;;;24.80;73.30;;;;;;5054538;28;20048;-67
2021/07/31 04:10:27;;;;;;;28.65;9.73;;;24.90;72.90;;;;;;5054029;28;20044;-67
2021/07/31 04:14:09;;;;;;;25.17;10.02;;;24.90;72.90;;;;;;5054019;28;20036;-67
2021/07/31 04:17:21;;;;;;;27.15;10.30;;;24.90;73.50;;;;;;5041711;28;20052;-67
2021/07/31 04:20:25;;;;;;;30.92;10.15;;;24.90;73.90;;;;;;5042065;28;20036;-67
2021/07/31 04:23:30;;;;;;;32.67;10.50;;;24.90;73.60;;;;;;5053033;28;20051;-67
2021/07/31 04:26:34;;;;;;;20.10;8.77;;;24.90;73.70;;;;;;5053108;28;20048;-67
2021/07/31 04:29:37;;;;;;;31.63;11.23;;;25.00;74.00;;;;;;5053842;28;20044;-67
2021/07/31 04:32:41;;;;;;;33.20;11.68;;;25.10;73.80;;;;;;5053891;28;20060;-67
2021/07/31 04:35:46;;;;;;;22.60;11.27;;;25.10;73.80;;;;;;5053753;28;20052;-67
2021/07/31 04:38:50;;;;;;;35.95;16.25;;;25.20;74.10;;;;;;5053382;28;20044;-67
2021/07/31 04:41:54;;;;;;;39.33;15.35;;;25.20;74.40;;;;;;5054193;28;20360;-67
2021/07/31 04:44:57;;;;;;;41.38;17.13;;;25.30;74.20;;;;;;5053258;28;20400;-67
2021/07/31 04:48:01;;;;;;;37.65;15.80;;;25.40;74.10;;;;;;5053731;28;20052;-67
2021/07/31 04:51:08;;;;;;;33.60;15.00;;;25.60;73.70;;;;;;5053491;28;20059;-67
2021/07/31 04:54:12;;;;;;;39.63;15.02;;;25.90;73.10;;;;;;5053200;28;20060;-67
2021/07/31 04:57:17;;;;;;;27.23;14.10;;;26.30;72.10;;;;;;5053355;28;20044;-67
2021/07/31 05:00:20;;;;;;;34.33;13.80;;;26.90;70.70;;;;;;5053460;28;20042;-67
2021/07/31 05:03:25;;;;;;;35.75;16.25;;;27.60;69.30;;;;;;5052898;28;20060;-67
2021/07/31 05:06:30;;;;;;;30.98;13.05;;;28.40;66.80;;;;;;5052915;28;20040;-67
2021/07/31 05:09:34;;;;;;;32.97;12.15;;;29.10;65.00;;;;;;5053145;28;20048;-67
2021/07/31 05:12:38;;;;;;;34.53;12.48;;;29.60;63.40;;;;;;5040985;28;20060;-67
2021/07/31 05:15:44;;;;;;;34.08;12.20;;;29.90;62.20;;;;;;5053056;28;20036;-68
2021/07/31 05:18:48;;;;;;;36.25;11.52;;;30.20;61.40;;;;;;5052833;28;20429;-67
2021/07/31 05:21:55;;;;;;;36.88;12.05;;;30.50;61.00;;;;;;5053050;28;20040;-68
2021/07/31 05:24:59;;;;;;;41.83;12.02;;;30.50;60.90;;;;;;5053070;28;20096;-67
2021/07/31 05:28:03;;;;;;;39.80;13.90;;;30.20;61.40;;;;;;5040983;28;20381;-68
2021/07/31 05:31:08;;;;;;;36.80;13.73;;;30.10;61.80;;;;;;5052945;28;20503;-68
2021/07/31 05:34:12;;;;;;;34.30;13.60;;;29.80;62.40;;;;;;5052848;28;20040;-68
2021/07/31 05:37:16;;;;;;;32.72;13.25;;;29.60;62.90;;;;;;5053127;28;20040;-68
2021/07/31 05:40:23;;;;;;;43.67;13.10;;;29.50;63.20;;;;;;5052789;28;20083;-68
2021/07/31 05:43:27;;;;;;;36.97;14.02;;;29.50;63.10;;;;;;5052738;28;20076;-67
2021/07/31 05:46:31;;;;;;;52.28;13.68;;;29.80;63.00;;;;;;5053075;28;20048;-68
2021/07/31 05:49:35;;;;;;;46.47;13.45;;;30.00;62.90;;;;;;5052679;28;20040;-67
2021/07/31 05:52:39;;;;;;;42.17;13.75;;;29.90;62.30;;;;;;5052682;28;20040;-66
2021/07/31 06:00:28;;;;;;;37.33;12.10;;;30.20;60.80;;;;;;5052343;28;20048;-70
2021/07/31 06:03:35;;;;;;;40.65;12.40;;;30.10;60.90;;;;;;5052314;28;20052;-69
2021/07/31 06:06:39;;;;;;;44.92;13.30;;;30.00;61.80;;;;;;5053356;28;20392;-69
2021/07/31 06:09:50;;;;;;;53.45;14.02;;;29.90;62.60;;;;;;5052747;28;20406;-69
2021/07/31 06:12:54;;;;;;;42.58;15.52;;;29.70;63.90;;;;;;5052594;28;20071;-69
2021/07/31 06:15:59;;;;;;;42.15;14.25;;;29.60;64.90;;;;;;5052657;28;20056;-70
2021/07/31 06:19:05;;;;;;;39.00;13.95;;;29.50;66.00;;;;;;5056138;28;20514;-71
2021/07/31 06:22:11;;;;;;;45.13;14.82;;;29.80;65.60;;;;;;5055530;28;20036;-72
2021/07/31 06:25:15;;;;;;;38.28;15.18;;;29.90;66.00;;;;;;5056344;28;20056;-72
2021/07/31 06:28:18;;;;;;;36.20;14.57;;;30.10;66.20;;;;;;5056466;28;20048;-72
2021/07/31 06:31:22;;;;;;;45.78;16.48;;;30.20;65.20;;;;;;5056467;28;20052;-76
2021/07/31 06:34:26;;;;;;;34.15;14.93;;;30.30;64.80;;;;;;5056111;28;20044;-71
2021/07/31 06:37:31;;;;;;;43.90;15.05;;;30.30;64.90;;;;;;5055717;28;20060;-73
2021/07/31 06:40:35;;;;;;;46.38;14.52;;;30.80;64.20;;;;;;5055949;28;20048;-69
2021/07/31 06:43:39;;;;;;;43.72;14.10;;;30.90;63.10;;;;;;5056025;28;20056;-76
2021/07/31 06:46:43;;;;;;;54.58;13.18;;;31.00;62.90;;;;;;5055887;28;20040;-71
2021/07/31 06:49:47;;;;;;;42.50;13.05;;;31.20;62.20;;;;;;5055660;28;20064;-73
2021/07/31 06:52:51;;;;;;;28.70;12.77;;;31.20;61.10;;;;;;5055935;28;20052;-70
2021/07/31 06:55:58;;;;;;;36.08;12.38;;;31.30;61.20;;;;;;5055535;28;20044;-70
2021/07/31 06:59:03;;;;;;;37.88;11.98;;;31.40;60.10;;;;;;5055616;28;20048;-73
2021/07/31 07:02:07;;;;;;;44.50;13.40;;;31.40;60.00;;;;;;5043370;28;20112;-71
2021/07/31 07:05:12;;;;;;;30.25;12.07;;;31.40;59.50;;;;;;5054705;28;20056;-71
2021/07/31 07:08:16;;;;;;;33.75;13.00;;;31.70;58.90;;;;;;5055200;28;20044;-70
2021/07/31 07:11:20;;;;;;;33.20;12.38;;;32.10;58.10;;;;;;5055437;28;20051;-72
2021/07/31 07:14:24;;;;;;;42.67;13.82;;;32.10;58.00;;;;;;5055194;28;20052;-70
2021/07/31 07:17:28;;;;;;;67.38;24.65;;;32.80;56.80;;;;;;5042596;28;20492;-71
2021/07/31 07:20:32;;;;;;;52.33;23.67;;;33.70;55.10;;;;;;5055102;28;20044;-72
2021/07/31 07:23:36;;;;;;;48.67;20.65;;;34.40;53.40;;;;;;5042549;28;20081;-71
2021/07/31 07:26:40;;;;;;;77.00;39.53;;;35.00;52.60;;;;;;5055093;28;20051;-73
2021/07/31 07:29:45;;;;;;;70.80;26.40;;;35.10;51.40;;;;;;5054720;28;20380;-77
2021/07/31 07:32:51;;;;;;;68.38;29.00;;;35.30;50.40;;;;;;5054973;28;20511;-74
2021/07/31 07:35:55;;;;;;;60.22;19.45;;;35.50;50.30;;;;;;5055004;28;20396;-75
2021/07/31 07:38:59;;;;;;;34.60;14.75;;;35.90;49.40;;;;;;5055032;28;20051;-75
2021/07/31 07:42:04;;;;;;;46.25;14.88;;;36.10;48.50;;;;;;5054732;28;20044;-74
2021/07/31 07:45:09;;;;;;;46.72;14.50;;;36.10;48.60;;;;;;5054500;28;20396;-75
2021/07/31 07:48:13;;;;;;;28.63;11.52;;;36.30;49.20;;;;;;5054652;28;20048;-73
2021/07/31 07:51:17;;;;;;;30.23;11.25;;;36.40;48.90;;;;;;5054147;28;20507;-72
2021/07/31 07:54:21;;;;;;;33.08;10.73;;;36.60;48.20;;;;;;5054200;28;20040;-71
2021/07/31 07:57:26;;;;;;;27.92;10.25;;;36.70;47.60;;;;;;5054066;28;20404;-71
2021/07/31 08:00:30;;;;;;;27.77;10.13;;;36.70;47.70;;;;;;5053846;28;20040;-74
2021/07/31 08:03:34;;;;;;;24.52;9.98;;;36.30;48.50;;;;;;5053760;28;20052;-74
2021/07/31 08:06:41;;;;;;;26.88;10.20;;;36.00;48.50;;;;;;5054312;28;20044;-76
2021/07/31 08:09:45;;;;;;;32.35;8.35;;;35.70;48.50;;;;;;5054253;28;20048;-74
2021/07/31 08:12:49;;;;;;;26.10;8.50;;;35.60;48.30;;;;;;5054220;28;20123;-74
2021/07/31 08:15:56;;;;;;;27.38;9.23;;;35.40;48.70;;;;;;5054160;28;20063;-74
2021/07/31 08:19:01;;;;;;;19.60;8.20;;;35.50;48.80;;;;;;5054100;28;20044;-74
2021/07/31 08:22:05;;;;;;;19.27;9.18;;;35.60;48.80;;;;;;5053938;28;20376;-74
2021/07/31 08:25:10;;;;;;;31.05;9.32;;;35.70;49.10;;;;;;5053575;28;20051;-74
2021/07/31 08:28:14;;;;;;;20.75;9.13;;;35.70;48.70;;;;;;5053845;28;20385;-74
2021/07/31 08:31:18;;;;;;;33.75;11.93;;;35.70;49.50;;;;;;5053899;28;20495;-75
2021/07/31 08:34:22;;;;;;;19.17;8.25;;;35.80;49.40;;;;;;5041270;28;20040;-74
2021/07/31 08:37:27;;;;;;;26.85;9.23;;;35.90;49.50;;;;;;5053698;28;20048;-74
2021/07/31 08:40:33;;;;;;;24.15;9.30;;;35.90;48.60;;;;;;5053035;28;20195;-75
2021/07/31 08:43:37;;;;;;;25.48;8.95;;;35.90;48.20;;;;;;5054328;28;20067;-75
2021/07/31 08:46:43;;;;;;;29.58;9.57;;;35.90;48.70;;;;;;5053297;28;20043;-74
2021/07/31 08:49:48;;;;;;;22.13;8.85;;;35.90;48.20;;;;;;5053703;28;20048;-74
2021/07/31 08:52:55;;;;;;;31.13;9.90;;;35.60;49.00;;;;;;5053575;28;20068;-74
2021/07/31 08:56:00;;;;;;;21.77;8.70;;;35.60;50.00;;;;;;5040908;28;20389;-74
2021/07/31 08:59:04;;;;;;;24.23;9.25;;;35.60;50.10;;;;;;5053495;28;20044;-75
2021/07/31 09:02:08;;;;;;;28.05;10.25;;;35.60;50.00;;;;;;5053330;28;20040;-74
2021/07/31 09:05:27;;;;;;;23.98;10.18;;;35.60;50.40;;;;;;5052520;28;20519;-74
2021/07/31 09:08:50;;;;;;;23.63;10.32;;;35.60;51.10;;;;;;5053256;28;20048;-75
2021/07/31 09:12:04;;;;;;;29.15;10.07;;;35.70;51.40;;;;;;5052702;28;20480;-75
2021/07/31 09:15:09;;;;;;;20.05;8.75;;;35.70;51.30;;;;;;5053022;28;20036;-74
2021/07/31 09:18:34;;;;;;;23.88;9.18;;;35.70;51.10;;;;;;5052950;28;20081;-74
2021/07/31 09:21:42;;;;;;;20.50;8.90;;;35.70;51.50;;;;;;5053003;28;20043;-74
2021/07/31 09:25:16;;;;;;;18.80;8.68;;;35.80;50.90;;;;;;5053010;28;20044;-76
2021/07/31 09:28:21;;;;;;;29.35;10.50;;;35.80;50.00;;;;;;5040505;28;20048;-74
2021/07/31 09:31:25;;;;;;;21.13;9.88;;;35.80;49.80;;;;;;5053180;28;20503;-75
2021/07/31 09:34:34;;;;;;;18.33;8.85;;;35.80;50.10;;;;;;5040643;28;20051;-74
2021/07/31 09:37:47;;;;;;;25.30;9.60;;;35.80;50.40;;;;;;5053018;28;20060;-74
2021/07/31 09:40:51;;;;;;;28.60;9.40;;;35.80;50.10;;;;;;5052927;28;20044;-75
2021/07/31 09:44:16;;;;;;;18.05;8.55;;;35.90;50.20;;;;;;5052819;28;20044;-74
2021/07/31 09:47:20;;;;;;;20.40;9.07;;;35.90;49.80;;;;;;5052916;28;20040;-74
2021/07/31 09:50:39;;;;;;;18.52;8.32;;;35.90;49.20;;;;;;5040447;28;20043;-74
2021/07/31 09:53:43;;;;;;;18.90;8.40;;;35.90;47.80;;;;;;5057009;28;20052;-74
2021/07/31 09:56:54;;;;;;;16.13;7.53;;;35.90;47.50;;;;;;5057018;28;20392;-75
2021/07/31 10:00:00;;;;;;;18.90;7.55;;;36.00;46.70;;;;;;5056526;28;20048;-74
2021/07/31 10:03:08;;;;;;;17.92;8.30;;;36.00;46.30;;;;;;5043753;28;20047;-74
2021/07/31 10:06:13;;;;;;;17.70;7.50;;;36.00;46.90;;;;;;5056692;28;20203;-75
2021/07/31 10:09:17;;;;;;;17.10;7.40;;;36.10;46.70;;;;;;5056320;28;20063;-77
2021/07/31 10:12:26;;;;;;;23.42;8.00;;;36.10;45.70;;;;;;5056402;28;20040;-74
2021/07/31 10:15:33;;;;;;;16.23;7.88;;;36.20;45.60;;;;;;5056741;28;20044;-74
2021/07/31 10:23:56;;;;;;;22.42;8.38;;;36.30;46.00;;;;;;5056031;28;20040;-75
2021/07/31 10:27:28;;;;;;;26.08;8.13;;;36.30;46.40;;;;;;5056113;28;20060;-74
2021/07/31 10:30:38;;;;;;;23.70;7.43;;;36.30;46.10;;;;;;5055896;28;20044;-74
2021/07/31 10:33:44;;;;;;;27.60;8.57;;;36.20;45.90;;;;;;5055868;28;20130;-74
2021/07/31 10:36:51;;;;;;;27.67;9.50;;;36.20;47.00;;;;;;5056537;28;20128;-74
2021/07/31 10:39:57;;;;;;;20.35;8.88;;;36.20;46.80;;;;;;5055853;28;20048;-74
2021/07/31 10:43:01;;;;;;;21.58;8.32;;;36.10;47.00;;;;;;5055849;28;20044;-75
2021/07/31 10:46:18;;;;;;;22.63;8.43;;;36.10;46.50;;;;;;5055936;28;20056;-74
2021/07/31 10:49:36;;;;;;;25.10;8.57;;;36.10;47.00;;;;;;5055593;28;20048;-74
2021/07/31 10:53:02;;;;;;;21.27;9.45;;;36.00;46.80;;;;;;5056022;28;20040;-74
2021/07/31 10:56:07;;;;;;;24.92;9.07;;;36.00;47.30;;;;;;5055642;28;20044;-75
2021/07/31 10:59:19;;;;;;;20.67;8.45;;;36.00;46.60;;;;;;5043177;28;20040;-74
2021/07/31 11:02:34;;;;;;;24.77;7.88;;;35.90;46.60;;;;;;5054794;28;20048;-76
2021/07/31 11:06:00;;;;;;;16.70;8.18;;;35.80;46.30;;;;;;5055369;28;20468;-74
2021/07/31 11:09:09;;;;;;;30.63;9.85;;;35.70;46.90;;;;;;5055392;28;20073;-74
2021/07/31 11:12:39;;;;;;;24.63;8.65;;;35.70;47.00;;;;;;5055583;28;20065;-75
2021/07/31 11:15:59;;;;;;;20.23;7.00;;;35.60;46.90;;;;;;5055311;28;20373;-74
2021/07/31 11:19:04;;;;;;;24.27;8.32;;;35.50;46.90;;;;;;5055209;28;20139;-74
2021/07/31 11:22:08;;;;;;;29.27;10.23;;;35.50;47.70;;;;;;5055003;28;20488;-74
2021/07/31 11:25:12;;;;;;;25.25;8.25;;;35.50;47.40;;;;;;5055118;28;20052;-74
2021/07/31 11:33:33;;;;;;;22.33;7.57;;;35.40;47.20;;;;;;5054786;28;20412;-74
2021/07/31 11:36:39;;;;;;;18.50;7.65;;;35.40;47.50;;;;;;5037453;28;20522;-73
2021/07/31 11:39:45;;;;;;;20.70;7.78;;;35.30;47.20;;;;;;5054601;28;20058;-73
2021/07/31 11:42:56;;;;;;;23.40;7.93;;;35.30;47.60;;;;;;5054786;28;20040;-74
2021/07/31 11:46:00;;;;;;;18.98;7.82;;;35.40;47.60;;;;;;5054700;28;20060;-73
2021/07/31 11:49:10;;;;;;;25.10;7.47;;;35.30;47.20;;;;;;5054666;28;20044;-73
2021/07/31 11:52:13;;;;;;;20.23;7.47;;;35.40;47.80;;;;;;5054730;28;20483;-72
2021/07/31 11:55:24;;;;;;;18.65;7.88;;;35.30;47.50;;;;;;5055001;28;20052;-73
2021/07/31 11:58:29;;;;;;;20.30;7.70;;;35.30;47.30;;;;;;5054545;28;20055;-73
2021/07/31 12:06:36;;;;;;;23.55;7.18;;;35.30;46.60;;;;;;5020971;28;20048;-73
2021/07/31 12:09:44;;;;;;;26.88;7.07;;;35.40;46.60;;;;;;5014571;28;20041;-73
2021/07/31 12:12:49;;;;;;;20.65;7.72;;;35.30;46.20;;;;;;5014434;28;20056;-73
2021/07/31 12:15:55;;;;;;;15.93;7.38;;;35.30;46.80;;;;;;5015043;28;20049;-73
2021/07/31 12:18:59;;;;;;;20.90;6.70;;;35.30;46.70;;;;;;5014176;28;20513;-73
2021/07/31 12:22:08;;;;;;;16.02;6.70;;;35.30;47.10;;;;;;5014244;28;20045;-73
2021/07/31 12:30:38;;;;;;;20.55;7.40;;;35.30;47.40;;;;;;5013969;28;20052;-73
2021/07/31 12:33:42;;;;;;;18.10;6.88;;;35.20;47.40;;;;;;5014477;28;20040;-75
2021/07/31 12:36:54;;;;;;;22.27;7.78;;;35.20;47.40;;;;;;5014128;28;20053;-74
2021/07/31 12:39:58;;;;;;;18.83;8.10;;;35.10;47.80;;;;;;5014069;28;20052;-74
2021/07/31 12:43:06;;;;;;;19.95;7.57;;;35.10;48.20;;;;;;5014078;28;20033;-73
2021/07/31 12:46:10;;;;;;;20.77;7.13;;;35.10;49.20;;;;;;5013442;28;20072;-73
2021/07/31 12:49:14;;;;;;;26.08;7.13;;;35.10;49.90;;;;;;5013851;28;20477;-74
2021/07/31 12:52:18;;;;;;;20.45;7.25;;;35.00;49.90;;;;;;5013856;28;20056;-74
2021/07/31 12:55:24;;;;;;;25.98;7.60;;;34.90;49.40;;;;;;5014197;28;20045;-74
2021/07/31 12:58:27;;;;;;;26.80;8.38;;;34.90;49.10;;;;;;5024710;28;20044;-73
2021/07/31 13:01:31;;;;;;;16.80;6.93;;;34.90;49.20;;;;;;5013790;28;20045;-73
2021/07/31 13:04:35;;;;;;;18.30;6.85;;;34.90;49.20;;;;;;5038340;28;20080;-74
2021/07/31 13:07:40;;;;;;;18.20;7.55;;;34.80;49.50;;;;;;5053387;28;20043;-72
2021/07/31 13:10:45;;;;;;;18.75;7.28;;;34.80;49.70;;;;;;5053388;28;20504;-72
2021/07/31 13:13:52;;;;;;;19.60;7.70;;;34.80;50.20;;;;;;5053271;28;20095;-74
2021/07/31 13:16:56;;;;;;;28.73;8.15;;;34.70;51.00;;;;;;5053091;28;20052;-73
2021/07/31 13:20:00;;;;;;;24.65;8.07;;;34.60;52.00;;;;;;5053643;28;20048;-74
2021/07/31 13:23:06;;;;;;;26.42;7.85;;;34.60;51.90;;;;;;5053745;28;20048;-74
2021/07/31 13:26:10;;;;;;;22.35;8.02;;;34.50;52.40;;;;;;5052776;28;20075;-73
2021/07/31 13:29:14;;;;;;;16.88;6.90;;;34.50;52.60;;;;;;5053226;28;20400;-73
2021/07/31 13:32:18;;;;;;;19.45;8.00;;;34.40;52.20;;;;;;5052980;28;20048;-73
2021/07/31 13:40:17;;;;;;;30.23;7.75;;;34.50;52.70;;;;;;5052737;28;20107;-73
2021/07/31 13:43:21;;;;;;;29.85;8.18;;;34.40;53.50;;;;;;5052881;28;20048;-74
2021/07/31 13:46:25;;;;;;;22.67;6.97;;;34.40;54.10;;;;;;5052466;28;20052;-73
2021/07/31 13:49:28;;;;;;;24.88;7.43;;;34.40;54.80;;;;;;5052861;28;20048;-73
2021/07/31 13:52:32;;;;;;;22.83;7.25;;;34.40;54.00;;;;;;5040552;28;20044;-73
2021/07/31 13:55:37;;;;;;;21.20;7.47;;;34.30;54.70;;;;;;5052929;28;20044;-74
2021/07/31 13:58:41;;;;;;;21.30;7.53;;;34.30;55.10;;;;;;5052699;28;20043;-73
2021/07/31 14:01:45;;;;;;;27.20;8.38;;;34.30;55.40;;;;;;5052652;28;20036;-73
2021/07/31 14:04:50;;;;;;;18.30;7.07;;;34.30;55.60;;;;;;5052137;28;20060;-73
2021/07/31 14:07:53;;;;;;;22.15;8.48;;;34.30;57.00;;;;;;5052623;28;20052;-73
2021/07/31 14:10:57;;;;;;;27.77;9.68;;;34.20;56.40;;;;;;5040401;28;20044;-74
2021/07/31 14:14:01;;;;;;;30.00;8.50;;;34.20;56.60;;;;;;5040254;28;20044;-75
2021/07/31 14:17:05;;;;;;;30.73;8.48;;;34.20;56.60;;;;;;5052577;28;20040;-74
2021/07/31 14:20:10;;;;;;;33.88;8.38;;;34.10;56.00;;;;;;5052613;28;20048;-74
2021/07/31 14:32:46;;;;;;;20.83;7.65;;;34.10;56.60;;;;;;5052520;28;20357;-74
2021/07/31 14:35:50;;;;;;;20.83;7.90;;;34.00;56.90;;;;;;5052161;28;20040;-74
2021/07/31 14:38:54;;;;;;;19.85;6.93;;;33.90;56.70;;;;;;5054485;28;20060;-74
2021/07/31 14:41:58;;;;;;;30.50;7.80;;;33.90;56.40;;;;;;5055912;28;20060;-74
2021/07/31 14:45:02;;;;;;;29.40;8.68;;;33.90;54.60;;;;;;5056006;28;20044;-76
2021/07/31 14:48:07;;;;;;;22.55;7.30;;;33.80;54.90;;;;;;5055915;28;20389;-75
2021/07/31 14:51:17;;;;;;;26.88;7.85;;;33.70;55.20;;;;;;5056099;28;20372;-74
2021/07/31 14:54:21;;;;;;;20.08;6.88;;;33.70;54.30;;;;;;5055930;28;20052;-73
2021/07/31 14:57:29;;;;;;;19.10;7.00;;;33.60;54.70;;;;;;5055702;28;20044;-75
2021/07/31 15:00:34;;;;;;;21.15;6.93;;;33.60;55.20;;;;;;5055612;28;20060;-74
2021/07/31 15:03:39;;;;;;;18.10;7.32;;;33.60;54.90;;;;;;5055459;28;20413;-74
2021/07/31 15:11:03;;;;;;;17.08;7.03;;;33.60;53.40;;;;;;5042576;28;20040;-77
2021/07/31 15:18:52;;;;;;;20.88;7.25;;;33.50;53.40;;;;;;5055019;28;20500;-74
2021/07/31 15:21:56;;;;;;;22.17;7.97;;;33.50;53.70;;;;;;5042806;28;20036;-73
2021/07/31 15:25:00;;;;;;;18.25;6.50;;;33.50;53.70;;;;;;5055050;28;20092;-74
2021/07/31 15:28:04;;;;;;;18.75;7.30;;;33.50;54.20;;;;;;5054910;28;20060;-73
2021/07/31 15:36:02;;;;;;;27.02;9.15;;;33.50;54.50;;;;;;5054594;28;20040;-74
2021/07/31 15:39:08;;;;;;;30.90;8.00;;;33.50;55.60;;;;;;5054999;28;20047;-74
2021/07/31 15:42:12;;;;;;;34.15;9.95;;;33.50;55.30;;;;;;5054350;28;20052;-74
2021/07/31 15:45:19;;;;;;;28.17;9.68;;;33.50;54.00;;;;;;5054294;28;20052;-73
2021/07/31 15:48:24;;;;;;;23.88;10.02;;;33.50;54.00;;;;;;5041992;28;20060;-73
2021/07/31 15:51:29;;;;;;;21.05;10.18;;;33.50;54.30;;;;;;5054421;28;20043;-73
2021/07/31 15:59:18;;;;;;;35.42;9.68;;;33.50;53.30;;;;;;5054155;28;20036;-73
2021/07/31 16:02:22;;;;;;;24.00;10.35;;;33.50;54.00;;;;;;5054626;28;20047;-73
2021/07/31 16:10:35;;;;;;;27.95;8.35;;;33.40;53.70;;;;;;5060575;28;20044;-74
2021/07/31 16:18:24;;;;;;;17.08;7.65;;;33.40;54.80;;;;;;5053715;28;20032;-73
2021/07/31 16:21:29;;;;;;;23.52;6.90;;;33.40;55.10;;;;;;5053948;28;20044;-75
2021/07/31 16:24:33;;;;;;;16.40;7.20;;;33.30;54.80;;;;;;5053807;28;20052;-74
2021/07/31 16:27:38;;;;;;;17.67;6.57;;;33.30;55.30;;;;;;5053543;28;20052;-72
2021/07/31 16:30:42;;;;;;;16.00;6.28;;;33.30;55.30;;;;;;5053545;28;20055;-73
2021/07/31 16:33:46;;;;;;;18.40;7.45;;;33.20;54.70;;;;;;5053321;28;20048;-74
2021/07/31 16:36:50;;;;;;;19.17;6.82;;;33.20;54.40;;;;;;5053825;28;20040;-72
2021/07/31 16:39:54;;;;;;;21.67;7.82;;;33.20;55.10;;;;;;5053714;28;20052;-74
2021/07/31 16:42:58;;;;;;;26.67;12.18;;;33.10;54.70;;;;;;5053534;28;20043;-73
2021/07/31 16:46:02;;;;;;;17.08;7.78;;;33.00;55.60;;;;;;5052514;28;20068;-74
2021/07/31 16:53:50;;;;;;;25.48;7.18;;;33.00;54.90;;;;;;5053295;28;20040;-74
2021/07/31 16:56:54;;;;;;;15.13;6.53;;;33.00;54.10;;;;;;5040789;28;20044;-73
2021/07/31 16:59:58;;;;;;;22.30;7.85;;;32.90;54.20;;;;;;5052940;28;20036;-73
2021/07/31 17:03:02;;;;;;;26.48;8.25;;;32.80;54.30;;;;;;5053197;28;20044;-72
2021/07/31 17:06:07;;;;;;;24.90;10.02;;;32.80;54.60;;;;;;5052918;28;20516;-75
2021/07/31 17:09:11;;;;;;;22.15;9.00;;;32.80;54.80;;;;;;5052998;28;20052;-76